sensor_id;sensor_type;location;lat;lon;timestamp;pressure;altitude;pressure_sealevel;temperature;humidity
23318;BME280;11831;55.918;37.746;2023-04-20T00:01:46;100031.88;;;10.23;0.00
23318;BME280;11831;55.918;37.746;2023-04-20T00:04:13;100028.19;;;10.05;0.00
23318;BME280;11831;55.918;37.746;2023-04-20T00:06:40;100030.22;;;10.09;0.00
23318;BME280;11831;55.918;37.746;2023-04-20T00:09:07;100027.00;;;9.94;0.00
23318;BME280;11831;55.918;37.746;2023-04-20T00:11:33;100031.53;;;9.93;0.00
23318;BME280;11831;55.918;37.746;2023-04-20T00:13:59;100025.41;;;9.80;0.00
23318;BME280;11831;55.918;37.746;2023-04-20T00:16:25;100030.28;;;9.96;0.00
23318;BME280;11831;55.918;37.746;2023-04-20T00:18:51;100032.16;;;9.89;0.00
23318;BME280;11831;55.918;37.746;2023-04-20T00:21:17;100032.12;;;9.95;0.00
23318;BME280;11831;55.918;37.746;2023-04-20T00:23:51;100030.31;;;9.83;0.00
23318;BME280;11831;55.918;37.746;2023-04-20T00:26:17;100042.25;;;9.67;0.00
23318;BME280;11831;55.918;37.746;2023-04-20T00:28:44;100028.50;;;9.63;0.00
23318;BME280;11831;55.918;37.746;2023-04-20T00:31:10;100023.13;;;9.83;0.00
23318;BME280;11831;55.918;37.746;2023-04-20T00:33:36;100027.03;;;9.74;0.00
23318;BME280;11831;55.918;37.746;2023-04-20T00:36:02;100029.50;;;9.76;0.00
23318;BME280;11831;55.918;37.746;2023-04-20T00:38:28;100022.12;;;9.64;0.00
23318;BME280;11831;55.918;37.746;2023-04-20T00:40:55;100022.09;;;9.78;0.00
23318;BME280;11831;55.918;37.746;2023-04-20T00:43:21;100017.38;;;9.67;0.00
23318;BME280;11831;55.918;37.746;2023-04-20T00:45:48;100019.44;;;9.71;0.00
23318;BME280;11831;55.918;37.746;2023-04-20T00:48:17;100012.47;;;9.63;0.00
23318;BME280;11831;55.918;37.746;2023-04-20T00:50:43;100010.84;;;9.43;0.00
23318;BME280;11831;55.918;37.746;2023-04-20T00:53:09;100013.91;;;9.46;0.00
23318;BME280;11831;55.918;37.746;2023-04-20T00:55:36;100009.84;;;9.24;0.00
23318;BME280;11831;55.918;37.746;2023-04-20T00:58:03;100011.88;;;9.28;0.00
23318;BME280;11831;55.918;37.746;2023-04-20T01:00:29;99999.34;;;9.29;0.00
23318;BME280;11831;55.918;37.746;2023-04-20T01:02:55;99997.09;;;8.99;0.00
23318;BME280;11831;55.918;37.746;2023-04-20T01:05:21;99992.38;;;9.01;0.00
23318;BME280;11831;55.918;37.746;2023-04-20T01:07:48;99995.84;;;9.15;0.00
23318;BME280;11831;55.918;37.746;2023-04-20T01:10:14;99992.56;;;9.00;0.00
23318;BME280;11831;55.918;37.746;2023-04-20T01:12:40;99984.78;;;9.12;0.00
23318;BME280;11831;55.918;37.746;2023-04-20T01:15:07;99986.00;;;8.89;0.00
23318;BME280;11831;55.918;37.746;2023-04-20T01:17:34;99988.03;;;8.74;0.00
23318;BME280;11831;55.918;37.746;2023-04-20T01:20:03;99983.94;;;8.78;0.00
23318;BME280;11831;55.918;37.746;2023-04-20T01:22:29;99989.25;;;8.65;0.00
23318;BME280;11831;55.918;37.746;2023-04-20T01:24:55;99985.97;;;8.63;0.00
23318;BME280;11831;55.918;37.746;2023-04-20T01:27:21;99976.53;;;8.60;0.00
23318;BME280;11831;55.918;37.746;2023-04-20T01:29:47;99981.06;;;8.66;0.00
23318;BME280;11831;55.918;37.746;2023-04-20T01:32:14;99978.94;;;8.42;0.00
23318;BME280;11831;55.918;37.746;2023-04-20T01:34:40;99983.31;;;8.15;0.00
23318;BME280;11831;55.918;37.746;2023-04-20T01:37:06;99982.00;;;8.46;0.00
23318;BME280;11831;55.918;37.746;2023-04-20T01:39:36;99975.22;;;8.36;0.00
23318;BME280;11831;55.918;37.746;2023-04-20T01:42:03;99975.09;;;8.10;0.00
23318;BME280;11831;55.918;37.746;2023-04-20T01:44:29;99978.31;;;8.33;0.00
23318;BME280;11831;55.918;37.746;2023-04-20T01:46:56;99981.34;;;8.30;0.00
23318;BME280;11831;55.918;37.746;2023-04-20T01:49:22;99969.81;;;8.23;0.00
23318;BME280;11831;55.918;37.746;2023-04-20T01:51:48;99970.25;;;8.27;0.00
23318;BME280;11831;55.918;37.746;2023-04-20T01:54:14;99964.25;;;8.18;0.00
23318;BME280;11831;55.918;37.746;2023-04-20T01:56:40;99973.91;;;8.26;0.00
23318;BME280;11831;55.918;37.746;2023-04-20T01:59:06;99971.19;;;8.06;0.00
23318;BME280;11831;55.918;37.746;2023-04-20T02:01:32;99970.69;;;7.89;0.00
23318;BME280;11831;55.918;37.746;2023-04-20T02:03:59;99963.50;;;7.83;0.00
23318;BME280;11831;55.918;37.746;2023-04-20T02:06:25;99974.78;;;7.85;0.00
23318;BME280;11831;55.918;37.746;2023-04-20T02:08:51;99959.03;;;7.90;0.00
23318;BME280;11831;55.918;37.746;2023-04-20T02:11:18;99965.13;;;7.77;0.00
23318;BME280;11831;55.918;37.746;2023-04-20T02:13:44;99971.66;;;7.75;0.00
23318;BME280;11831;55.918;37.746;2023-04-20T02:16:10;99961.00;;;7.75;0.00
23318;BME280;11831;55.918;37.746;2023-04-20T02:18:36;99963.09;;;7.79;0.00
23318;BME280;11831;55.918;37.746;2023-04-20T02:21:02;99954.03;;;7.67;0.00
23318;BME280;11831;55.918;37.746;2023-04-20T02:23:28;99956.00;;;7.59;0.00
23318;BME280;11831;55.918;37.746;2023-04-20T02:25:54;99958.53;;;7.67;0.00
23318;BME280;11831;55.918;37.746;2023-04-20T02:28:20;99951.44;;;7.46;0.00
23318;BME280;11831;55.918;37.746;2023-04-20T02:30:46;99954.03;;;7.74;0.00
23318;BME280;11831;55.918;37.746;2023-04-20T02:33:13;99960.91;;;7.62;0.00
23318;BME280;11831;55.918;37.746;2023-04-20T02:35:39;99958.31;;;7.68;0.00
23318;BME280;11831;55.918;37.746;2023-04-20T02:38:05;99959.34;;;7.67;0.00
23318;BME280;11831;55.918;37.746;2023-04-20T02:40:31;99961.38;;;7.65;0.00
23318;BME280;11831;55.918;37.746;2023-04-20T02:42:57;99960.19;;;7.74;0.00
23318;BME280;11831;55.918;37.746;2023-04-20T02:45:23;99964.91;;;7.79;0.00
23318;BME280;11831;55.918;37.746;2023-04-20T02:47:49;99964.31;;;7.77;0.00
23318;BME280;11831;55.918;37.746;2023-04-20T02:50:15;99961.63;;;7.77;0.00
23318;BME280;11831;55.918;37.746;2023-04-20T02:52:42;99960.66;;;7.91;0.00
23318;BME280;11831;55.918;37.746;2023-04-20T02:55:08;99959.19;;;7.82;0.00
23318;BME280;11831;55.918;37.746;2023-04-20T02:57:34;99952.06;;;7.96;0.00
23318;BME280;11831;55.918;37.746;2023-04-20T03:00:01;99965.03;;;7.99;0.00
23318;BME280;11831;55.918;37.746;2023-04-20T03:02:29;99958.41;;;7.88;0.00
23318;BME280;11831;55.918;37.746;2023-04-20T03:04:55;99958.50;;;8.08;0.00
23318;BME280;11831;55.918;37.746;2023-04-20T03:07:21;99960.38;;;8.14;0.00
23318;BME280;11831;55.918;37.746;2023-04-20T03:09:47;99962.00;;;8.15;0.00
23318;BME280;11831;55.918;37.746;2023-04-20T03:12:14;99957.69;;;8.07;0.00
23318;BME280;11831;55.918;37.746;2023-04-20T03:14:40;99963.63;;;8.09;0.00
23318;BME280;11831;55.918;37.746;2023-04-20T03:17:06;99961.97;;;8.08;0.00
23318;BME280;11831;55.918;37.746;2023-04-20T03:19:33;99960.78;;;8.24;0.00
23318;BME280;11831;55.918;37.746;2023-04-20T03:22:00;99957.59;;;8.35;0.00
23318;BME280;11831;55.918;37.746;2023-04-20T03:24:26;99953.09;;;8.36;0.00
23318;BME280;11831;55.918;37.746;2023-04-20T03:26:52;99952.91;;;8.51;0.00
23318;BME280;11831;55.918;37.746;2023-04-20T03:29:18;99948.19;;;8.53;0.00
23318;BME280;11831;55.918;37.746;2023-04-20T03:31:45;99952.09;;;8.50;0.00
23318;BME280;11831;55.918;37.746;2023-04-20T03:34:11;99946.16;;;8.55;0.00
23318;BME280;11831;55.918;37.746;2023-04-20T03:36:37;99941.44;;;8.57;0.00
23318;BME280;11831;55.918;37.746;2023-04-20T03:39:03;99937.38;;;8.61;0.00
23318;BME280;11831;55.918;37.746;2023-04-20T03:41:30;99945.00;;;8.90;0.00
23318;BME280;11831;55.918;37.746;2023-04-20T03:43:56;99946.19;;;8.68;0.00
23318;BME280;11831;55.918;37.746;2023-04-20T03:46:22;99946.81;;;8.83;0.00
23318;BME280;11831;55.918;37.746;2023-04-20T03:48:48;99950.53;;;8.95;0.00
23318;BME280;11831;55.918;37.746;2023-04-20T03:51:15;99947.66;;;8.97;0.00
23318;BME280;11831;55.918;37.746;2023-04-20T03:53:41;99948.03;;;9.14;0.00
23318;BME280;11831;55.918;37.746;2023-04-20T03:56:07;99942.72;;;9.00;0.00
23318;BME280;11831;55.918;37.746;2023-04-20T03:58:34;99951.12;;;9.17;0.00
23318;BME280;11831;55.918;37.746;2023-04-20T04:01:03;99945.16;;;9.35;0.00
23318;BME280;11831;55.918;37.746;2023-04-20T04:03:33;99944.75;;;9.31;0.00
23318;BME280;11831;55.918;37.746;2023-04-20T04:05:59;99936.31;;;9.41;0.00
23318;BME280;11831;55.918;37.746;2023-04-20T04:08:25;99934.66;;;9.53;0.00
23318;BME280;11831;55.918;37.746;2023-04-20T04:10:51;99938.75;;;9.56;0.00
23318;BME280;11831;55.918;37.746;2023-04-20T04:13:18;99945.97;;;9.42;0.00
23318;BME280;11831;55.918;37.746;2023-04-20T04:15:44;99950.06;;;9.51;0.00
23318;BME280;11831;55.918;37.746;2023-04-20T04:18:10;99946.78;;;9.36;0.00
23318;BME280;11831;55.918;37.746;2023-04-20T04:20:36;99940.13;;;9.78;0.00
23318;BME280;11831;55.918;37.746;2023-04-20T04:23:02;99929.50;;;9.58;0.00
23318;BME280;11831;55.918;37.746;2023-04-20T04:25:29;99935.00;;;9.77;0.00
23318;BME280;11831;55.918;37.746;2023-04-20T04:27:55;99935.38;;;9.87;0.00
23318;BME280;11831;55.918;37.746;2023-04-20T04:30:21;99938.13;;;10.25;0.00
23318;BME280;11831;55.918;37.746;2023-04-20T04:32:49;99942.53;;;10.44;0.00
23318;BME280;11831;55.918;37.746;2023-04-20T04:35:15;99931.53;;;10.27;0.00
23318;BME280;11831;55.918;37.746;2023-04-20T04:37:41;99930.66;;;10.72;0.00
23318;BME280;11831;55.918;37.746;2023-04-20T04:40:08;99930.53;;;10.85;0.00
23318;BME280;11831;55.918;37.746;2023-04-20T04:42:34;99929.78;;;11.03;0.00
23318;BME280;11831;55.918;37.746;2023-04-20T04:45:01;99929.41;;;11.42;0.00
23318;BME280;11831;55.918;37.746;2023-04-20T04:47:33;99915.31;;;11.29;0.00
23318;BME280;11831;55.918;37.746;2023-04-20T04:50:03;99920.69;;;11.29;0.00
23318;BME280;11831;55.918;37.746;2023-04-20T04:52:31;99917.84;;;11.67;0.00
23318;BME280;11831;55.918;37.746;2023-04-20T04:54:57;99916.13;;;11.72;0.00
23318;BME280;11831;55.918;37.746;2023-04-20T04:57:24;99917.97;;;11.72;0.00
23318;BME280;11831;55.918;37.746;2023-04-20T04:59:50;99916.47;;;11.76;0.00
23318;BME280;11831;55.918;37.746;2023-04-20T05:02:16;99910.47;;;11.99;0.00
23318;BME280;11831;55.918;37.746;2023-04-20T05:04:42;99911.28;;;11.99;0.00
23318;BME280;11831;55.918;37.746;2023-04-20T05:07:09;99915.50;;;12.07;0.00
23318;BME280;11831;55.918;37.746;2023-04-20T05:09:39;99910.47;;;11.99;0.00
23318;BME280;11831;55.918;37.746;2023-04-20T05:12:05;99905.16;;;12.10;0.00
23318;BME280;11831;55.918;37.746;2023-04-20T05:14:31;99909.47;;;12.11;0.00
23318;BME280;11831;55.918;37.746;2023-04-20T05:16:58;99901.59;;;12.58;0.00
23318;BME280;11831;55.918;37.746;2023-04-20T05:19:24;99903.66;;;12.44;0.00
23318;BME280;11831;55.918;37.746;2023-04-20T05:21:50;99903.13;;;12.66;0.00
23318;BME280;11831;55.918;37.746;2023-04-20T05:24:17;99908.50;;;12.78;0.00
23318;BME280;11831;55.918;37.746;2023-04-20T05:26:44;99905.81;;;12.78;0.00
23318;BME280;11831;55.918;37.746;2023-04-20T05:29:11;99903.38;;;12.76;0.00
23318;BME280;11831;55.918;37.746;2023-04-20T05:31:38;99902.34;;;13.00;0.00
23318;BME280;11831;55.918;37.746;2023-04-20T05:34:04;99906.22;;;13.40;0.00
23318;BME280;11831;55.918;37.746;2023-04-20T05:36:30;99902.28;;;13.19;0.00
23318;BME280;11831;55.918;37.746;2023-04-20T05:38:58;99897.47;;;13.56;0.00
23318;BME280;11831;55.918;37.746;2023-04-20T05:41:24;99896.56;;;13.90;0.00
23318;BME280;11831;55.918;37.746;2023-04-20T05:43:53;99905.16;;;13.64;0.00
23318;BME280;11831;55.918;37.746;2023-04-20T05:46:20;99899.63;;;13.82;0.00
23318;BME280;11831;55.918;37.746;2023-04-20T05:48:46;99902.22;;;14.06;0.00
23318;BME280;11831;55.918;37.746;2023-04-20T05:51:13;99901.63;;;14.15;0.00
23318;BME280;11831;55.918;37.746;2023-04-20T05:53:39;99906.19;;;13.75;0.00
23318;BME280;11831;55.918;37.746;2023-04-20T05:56:05;99900.41;;;13.94;0.00
23318;BME280;11831;55.918;37.746;2023-04-20T05:58:32;99895.28;;;14.21;0.00
23318;BME280;11831;55.918;37.746;2023-04-20T06:00:59;99899.78;;;14.33;0.00
23318;BME280;11831;55.918;37.746;2023-04-20T06:03:26;99895.03;;;14.23;0.00
23318;BME280;11831;55.918;37.746;2023-04-20T06:05:52;99894.87;;;14.01;0.00
23318;BME280;11831;55.918;37.746;2023-04-20T06:08:18;99893.34;;;14.05;0.00
23318;BME280;11831;55.918;37.746;2023-04-20T06:10:44;99903.06;;;14.63;0.00
23318;BME280;11831;55.918;37.746;2023-04-20T06:13:10;99897.19;;;14.66;0.00
23318;BME280;11831;55.918;37.746;2023-04-20T06:15:36;99897.69;;;14.97;0.00
23318;BME280;11831;55.918;37.746;2023-04-20T06:18:02;99897.62;;;14.75;0.00
23318;BME280;11831;55.918;37.746;2023-04-20T06:20:29;99896.72;;;15.03;0.00
23318;BME280;11831;55.918;37.746;2023-04-20T06:22:55;99900.63;;;14.95;0.00
23318;BME280;11831;55.918;37.746;2023-04-20T06:25:21;99891.91;;;15.43;0.00
23318;BME280;11831;55.918;37.746;2023-04-20T06:27:47;99886.97;;;15.35;0.00
23318;BME280;11831;55.918;37.746;2023-04-20T06:30:13;99895.25;;;15.12;0.00
23318;BME280;11831;55.918;37.746;2023-04-20T06:32:40;99890.28;;;15.42;0.00
23318;BME280;11831;55.918;37.746;2023-04-20T06:35:06;99888.09;;;15.78;0.00
23318;BME280;11831;55.918;37.746;2023-04-20T06:37:33;99879.25;;;15.82;0.00
23318;BME280;11831;55.918;37.746;2023-04-20T06:39:59;99884.16;;;16.12;0.00
23318;BME280;11831;55.918;37.746;2023-04-20T06:42:25;99874.00;;;16.20;0.00
23318;BME280;11831;55.918;37.746;2023-04-20T06:44:52;99884.38;;;16.33;0.00
23318;BME280;11831;55.918;37.746;2023-04-20T06:47:18;99866.09;;;16.13;0.00
23318;BME280;11831;55.918;37.746;2023-04-20T06:49:44;99875.22;;;16.07;0.00
23318;BME280;11831;55.918;37.746;2023-04-20T06:52:10;99876.84;;;15.86;0.00
23318;BME280;11831;55.918;37.746;2023-04-20T06:54:36;99866.66;;;16.15;0.00
23318;BME280;11831;55.918;37.746;2023-04-20T06:57:02;99870.31;;;16.04;0.00
23318;BME280;11831;55.918;37.746;2023-04-20T06:59:28;99864.19;;;15.87;0.00
23318;BME280;11831;55.918;37.746;2023-04-20T07:01:54;99869.63;;;16.13;0.00
23318;BME280;11831;55.918;37.746;2023-04-20T07:04:20;99864.50;;;16.44;0.00
23318;BME280;11831;55.918;37.746;2023-04-20T07:06:47;99861.63;;;16.24;0.00
23318;BME280;11831;55.918;37.746;2023-04-20T07:09:14;99861.59;;;16.51;0.00
23318;BME280;11831;55.918;37.746;2023-04-20T07:11:40;99865.63;;;16.75;0.00
23318;BME280;11831;55.918;37.746;2023-04-20T07:14:06;99859.59;;;17.00;0.00
23318;BME280;11831;55.918;37.746;2023-04-20T07:16:32;99852.59;;;17.04;0.00
23318;BME280;11831;55.918;37.746;2023-04-20T07:18:58;99855.53;;;16.97;0.00
23318;BME280;11831;55.918;37.746;2023-04-20T07:21:25;99849.09;;;17.03;0.00
23318;BME280;11831;55.918;37.746;2023-04-20T07:23:51;99852.81;;;17.39;0.00
23318;BME280;11831;55.918;37.746;2023-04-20T07:26:17;99855.31;;;17.46;0.00
23318;BME280;11831;55.918;37.746;2023-04-20T07:28:43;99850.28;;;17.70;0.00
23318;BME280;11831;55.918;37.746;2023-04-20T07:31:10;99841.72;;;17.93;0.00
23318;BME280;11831;55.918;37.746;2023-04-20T07:33:36;99840.75;;;17.57;0.00
23318;BME280;11831;55.918;37.746;2023-04-20T07:36:02;99836.59;;;18.02;0.00
23318;BME280;11831;55.918;37.746;2023-04-20T07:38:29;99848.78;;;18.10;0.00
23318;BME280;11831;55.918;37.746;2023-04-20T07:40:55;99849.09;;;18.34;0.00
23318;BME280;11831;55.918;37.746;2023-04-20T07:43:21;99851.28;;;18.47;0.00
23318;BME280;11831;55.918;37.746;2023-04-20T07:45:47;99844.03;;;18.68;0.00
23318;BME280;11831;55.918;37.746;2023-04-20T07:48:13;99838.53;;;18.27;0.00
23318;BME280;11831;55.918;37.746;2023-04-20T07:50:40;99841.81;;;18.59;0.00
23318;BME280;11831;55.918;37.746;2023-04-20T07:53:06;99844.81;;;18.83;0.00
23318;BME280;11831;55.918;37.746;2023-04-20T07:55:33;99838.34;;;19.74;0.00
23318;BME280;11831;55.918;37.746;2023-04-20T07:57:59;99830.22;;;19.74;0.00
23318;BME280;11831;55.918;37.746;2023-04-20T08:00:25;99823.06;;;19.94;0.00
23318;BME280;11831;55.918;37.746;2023-04-20T08:02:51;99831.13;;;20.53;41.12
23318;BME280;11831;55.918;37.746;2023-04-20T08:05:18;99830.06;;;21.07;40.66
23318;BME280;11831;55.918;37.746;2023-04-20T08:07:44;99824.22;;;20.95;39.04
23318;BME280;11831;55.918;37.746;2023-04-20T08:10:10;99824.09;;;20.76;37.66
23318;BME280;11831;55.918;37.746;2023-04-20T08:12:37;99812.88;;;20.59;37.45
23318;BME280;11831;55.918;37.746;2023-04-20T08:15:03;99820.41;;;20.67;37.10
23318;BME280;11831;55.918;37.746;2023-04-20T08:17:31;99812.38;;;20.81;36.84
23318;BME280;11831;55.918;37.746;2023-04-20T08:19:57;99818.31;;;20.59;37.00
23318;BME280;11831;55.918;37.746;2023-04-20T08:22:24;99810.91;;;20.64;36.72
23318;BME280;11831;55.918;37.746;2023-04-20T08:24:52;99817.91;;;20.99;36.38
23318;BME280;11831;55.918;37.746;2023-04-20T08:27:18;99809.41;;;21.06;35.87
23318;BME280;11831;55.918;37.746;2023-04-20T08:29:44;99806.16;;;21.04;35.60
23318;BME280;11831;55.918;37.746;2023-04-20T08:32:10;99808.22;;;21.41;35.67
23318;BME280;11831;55.918;37.746;2023-04-20T08:34:37;99806.31;;;22.03;35.13
23318;BME280;11831;55.918;37.746;2023-04-20T08:37:03;99806.22;;;22.13;34.77
23318;BME280;11831;55.918;37.746;2023-04-20T08:39:30;99802.28;;;22.71;34.11
23318;BME280;11831;55.918;37.746;2023-04-20T08:41:56;99806.62;;;22.39;34.11
23318;BME280;11831;55.918;37.746;2023-04-20T08:44:23;99797.22;;;21.75;34.69
23318;BME280;11831;55.918;37.746;2023-04-20T08:46:49;99790.88;;;21.98;34.02
23318;BME280;11831;55.918;37.746;2023-04-20T08:49:16;99791.06;;;21.46;33.97
23318;BME280;11831;55.918;37.746;2023-04-20T08:51:43;99792.25;;;22.34;33.48
23318;BME280;11831;55.918;37.746;2023-04-20T08:54:10;99789.66;;;22.10;33.66
23318;BME280;11831;55.918;37.746;2023-04-20T08:56:37;99772.84;;;21.46;33.62
23318;BME280;11831;55.918;37.746;2023-04-20T08:59:04;99777.09;;;21.71;34.14
23318;BME280;11831;55.918;37.746;2023-04-20T09:01:31;99789.09;;;22.45;33.46
23318;BME280;11831;55.918;37.746;2023-04-20T09:03:58;99776.94;;;22.05;33.25
23318;BME280;11831;55.918;37.746;2023-04-20T09:06:25;99788.88;;;21.66;33.19
23318;BME280;11831;55.918;37.746;2023-04-20T09:08:51;99786.25;;;22.37;33.19
23318;BME280;11831;55.918;37.746;2023-04-20T09:11:21;99788.50;;;22.81;33.18
23318;BME280;11831;55.918;37.746;2023-04-20T09:14:00;99791.34;;;22.57;33.29
23318;BME280;11831;55.918;37.746;2023-04-20T09:16:27;99781.72;;;22.13;33.85
23318;BME280;11831;55.918;37.746;2023-04-20T09:18:54;99776.28;;;21.70;34.00
23318;BME280;11831;55.918;37.746;2023-04-20T09:21:22;99777.63;;;21.73;34.20
23318;BME280;11831;55.918;37.746;2023-04-20T09:26:26;99775.75;;;21.02;34.82
23318;BME280;11831;55.918;37.746;2023-04-20T09:28:52;99778.94;;;21.57;34.57
23318;BME280;11831;55.918;37.746;2023-04-20T09:31:21;99781.97;;;21.93;34.24
23318;BME280;11831;55.918;37.746;2023-04-20T09:33:54;99774.50;;;20.65;35.49
23318;BME280;11831;55.918;37.746;2023-04-20T09:36:20;99773.44;;;20.90;35.02
23318;BME280;11831;55.918;37.746;2023-04-20T09:38:47;99775.84;;;20.68;34.83
23318;BME280;11831;55.918;37.746;2023-04-20T09:41:13;99774.38;;;20.75;35.20
23318;BME280;11831;55.918;37.746;2023-04-20T09:43:41;99777.84;;;20.57;34.94
23318;BME280;11831;55.918;37.746;2023-04-20T09:46:08;99781.56;;;19.93;35.07
23318;BME280;11831;55.918;37.746;2023-04-20T09:48:34;99779.59;;;20.38;34.94
23318;BME280;11831;55.918;37.746;2023-04-20T09:51:00;99768.38;;;20.55;35.15
23318;BME280;11831;55.918;37.746;2023-04-20T09:53:26;99765.59;;;21.13;35.00
23318;BME280;11831;55.918;37.746;2023-04-20T09:55:52;99767.94;;;21.24;34.76
23318;BME280;11831;55.918;37.746;2023-04-20T09:58:19;99759.84;;;20.90;34.75
23318;BME280;11831;55.918;37.746;2023-04-20T10:00:46;99759.84;;;20.90;35.29
23318;BME280;11831;55.918;37.746;2023-04-20T10:03:15;99757.63;;;20.68;35.89
23318;BME280;11831;55.918;37.746;2023-04-20T10:05:41;99754.84;;;20.73;36.09
23318;BME280;11831;55.918;37.746;2023-04-20T10:08:07;99755.78;;;20.64;36.12
23318;BME280;11831;55.918;37.746;2023-04-20T10:10:49;99755.81;;;20.59;36.17
23318;BME280;11831;55.918;37.746;2023-04-20T10:13:16;99759.63;;;20.24;35.91
23318;BME280;11831;55.918;37.746;2023-04-20T10:15:46;99757.22;;;20.80;35.10
23318;BME280;11831;55.918;37.746;2023-04-20T10:18:16;99747.28;;;21.23;34.98
23318;BME280;11831;55.918;37.746;2023-04-20T10:20:42;99741.66;;;21.15;35.03
23318;BME280;11831;55.918;37.746;2023-04-20T10:23:09;99738.47;;;20.21;35.66
23318;BME280;11831;55.918;37.746;2023-04-20T10:25:36;99737.94;;;19.79;35.75
23318;BME280;11831;55.918;37.746;2023-04-20T10:28:03;99739.75;;;19.94;35.18
23318;BME280;11831;55.918;37.746;2023-04-20T10:30:33;99748.16;;;19.43;35.49
23318;BME280;11831;55.918;37.746;2023-04-20T10:35:28;99731.94;;;20.56;34.62
23318;BME280;11831;55.918;37.746;2023-04-20T10:37:54;99740.78;;;19.64;35.46
23318;BME280;11831;55.918;37.746;2023-04-20T10:40:24;99739.31;;;20.16;36.13
23318;BME280;11831;55.918;37.746;2023-04-20T10:42:51;99736.25;;;19.94;37.60
23318;BME280;11831;55.918;37.746;2023-04-20T10:45:17;99713.53;;;19.30;39.58
23318;BME280;11831;55.918;37.746;2023-04-20T10:47:45;99739.94;;;18.99;40.99
23318;BME280;11831;55.918;37.746;2023-04-20T10:50:12;99717.53;;;18.73;41.29
23318;BME280;11831;55.918;37.746;2023-04-20T10:52:40;99740.28;;;18.31;0.00
23318;BME280;11831;55.918;37.746;2023-04-20T10:55:17;99740.25;;;18.57;0.00
23318;BME280;11831;55.918;37.746;2023-04-20T10:57:43;99741.87;;;18.02;0.00
23318;BME280;11831;55.918;37.746;2023-04-20T11:00:19;99741.34;;;18.00;0.00
23318;BME280;11831;55.918;37.746;2023-04-20T11:02:47;99738.66;;;17.95;0.00
23318;BME280;11831;55.918;37.746;2023-04-20T11:05:13;99729.44;;;17.81;0.00
23318;BME280;11831;55.918;37.746;2023-04-20T11:07:49;99729.72;;;17.94;0.00
23318;BME280;11831;55.918;37.746;2023-04-20T11:10:15;99739.72;;;18.04;0.00
23318;BME280;11831;55.918;37.746;2023-04-20T11:12:42;99726.75;;;18.16;0.00
23318;BME280;11831;55.918;37.746;2023-04-20T11:15:08;99722.97;;;17.92;0.00
23318;BME280;11831;55.918;37.746;2023-04-20T11:17:35;99721.59;;;18.35;0.00
23318;BME280;11831;55.918;37.746;2023-04-20T11:22:33;99725.13;;;18.46;0.00
23318;BME280;11831;55.918;37.746;2023-04-20T11:25:09;99705.00;;;18.87;0.00
23318;BME280;11831;55.918;37.746;2023-04-20T11:27:36;99705.06;;;18.62;0.00
23318;BME280;11831;55.918;37.746;2023-04-20T11:30:03;99707.22;;;18.80;41.08
23318;BME280;11831;55.918;37.746;2023-04-20T11:32:30;99700.12;;;18.89;40.96
23318;BME280;11831;55.918;37.746;2023-04-20T11:34:58;99702.84;;;18.89;40.53
23318;BME280;11831;55.918;37.746;2023-04-20T11:37:25;99702.31;;;18.87;40.61
23318;BME280;11831;55.918;37.746;2023-04-20T11:39:59;99701.53;;;19.41;39.89
23318;BME280;11831;55.918;37.746;2023-04-20T11:42:26;99698.56;;;19.87;39.48
23318;BME280;11831;55.918;37.746;2023-04-20T11:44:52;99698.22;;;20.28;38.78
23318;BME280;11831;55.918;37.746;2023-04-20T11:47:19;99694.28;;;21.96;37.39
23318;BME280;11831;55.918;37.746;2023-04-20T11:49:45;99692.56;;;22.00;36.17
23318;BME280;11831;55.918;37.746;2023-04-20T11:52:11;99682.84;;;23.41;35.52
23318;BME280;11831;55.918;37.746;2023-04-20T11:54:37;99675.13;;;25.26;33.80
23318;BME280;11831;55.918;37.746;2023-04-20T11:57:03;99679.50;;;25.96;32.48
23318;BME280;11831;55.918;37.746;2023-04-20T11:59:29;99669.19;;;25.41;31.74
23318;BME280;11831;55.918;37.746;2023-04-20T12:01:55;99676.41;;;28.33;30.73
23318;BME280;11831;55.918;37.746;2023-04-20T12:04:22;99658.13;;;30.03;29.07
23318;BME280;11831;55.918;37.746;2023-04-20T12:06:48;99662.94;;;30.06;28.56
23318;BME280;11831;55.918;37.746;2023-04-20T12:09:14;99661.06;;;31.56;27.13
23318;BME280;11831;55.918;37.746;2023-04-20T12:11:41;99652.59;;;30.31;26.73
23318;BME280;11831;55.918;37.746;2023-04-20T12:14:07;99651.88;;;32.29;26.08
23318;BME280;11831;55.918;37.746;2023-04-20T12:16:33;99651.69;;;31.79;26.29
23318;BME280;11831;55.918;37.746;2023-04-20T12:18:59;99645.75;;;31.77;25.67
23318;BME280;11831;55.918;37.746;2023-04-20T12:21:26;99644.13;;;30.40;26.90
23318;BME280;11831;55.918;37.746;2023-04-20T12:23:52;99644.69;;;29.21;27.75
23318;BME280;11831;55.918;37.746;2023-04-20T12:26:18;99644.75;;;30.49;27.01
23318;BME280;11831;55.918;37.746;2023-04-20T12:28:44;99632.12;;;31.49;26.30
23318;BME280;11831;55.918;37.746;2023-04-20T12:31:10;99633.75;;;32.54;25.66
23318;BME280;11831;55.918;37.746;2023-04-20T12:33:36;99628.22;;;32.12;25.53
23318;BME280;11831;55.918;37.746;2023-04-20T12:36:02;99625.88;;;30.51;26.88
23318;BME280;11831;55.918;37.746;2023-04-20T12:38:28;99624.47;;;30.73;26.31
23318;BME280;11831;55.918;37.746;2023-04-20T12:40:55;99612.28;;;29.98;26.61
23318;BME280;11831;55.918;37.746;2023-04-20T12:43:22;99609.59;;;28.21;27.34
23318;BME280;11831;55.918;37.746;2023-04-20T12:45:48;99608.81;;;26.45;29.54
23318;BME280;11831;55.918;37.746;2023-04-20T12:48:14;99595.69;;;24.91;32.53
23318;BME280;11831;55.918;37.746;2023-04-20T12:50:40;99601.62;;;23.83;35.51
23318;BME280;11831;55.918;37.746;2023-04-20T12:53:07;99599.53;;;23.21;39.32
23318;BME280;11831;55.918;37.746;2023-04-20T12:55:33;99586.44;;;23.10;35.82
23318;BME280;11831;55.918;37.746;2023-04-20T12:57:59;99595.31;;;21.73;36.58
23318;BME280;11831;55.918;37.746;2023-04-20T13:00:25;99599.56;;;21.47;38.05
23318;BME280;11831;55.918;37.746;2023-04-20T13:02:51;99598.38;;;21.15;40.36
23318;BME280;11831;55.918;37.746;2023-04-20T13:05:17;99587.13;;;21.41;0.00